createdAt,value
2022-12-03T00:03:18.705Z,2.17
2022-12-03T00:08:20.025Z,2.13
2022-12-03T00:13:18.610Z,2.11
2022-12-03T00:18:18.582Z,2.1
2022-12-03T00:23:20.790Z,2.1
2022-12-03T00:28:18.449Z,2.11
2022-12-03T00:33:18.951Z,2.13
2022-12-03T00:38:18.735Z,2.17
2022-12-03T00:43:19.539Z,2.19
2022-12-03T00:48:19.677Z,2.24
2022-12-03T00:53:20.942Z,2.28
2022-12-03T00:58:18.466Z,2.33
2022-12-03T01:03:18.696Z,2.36
2022-12-03T01:08:18.561Z,2.39
2022-12-03T01:13:18.579Z,2.42
2022-12-03T01:18:20.317Z,2.44
2022-12-03T01:23:18.505Z,2.48
2022-12-03T01:28:18.499Z,2.5
2022-12-03T01:33:18.582Z,2.54
2022-12-03T01:38:18.560Z,2.56
2022-12-03T01:43:18.558Z,2.58
2022-12-03T01:48:19.309Z,2.61
2022-12-03T01:53:20.076Z,2.65
2022-12-03T01:58:19.113Z,2.68
2022-12-03T02:03:20.849Z,2.7
2022-12-03T02:08:35.176Z,2.73
2022-12-03T02:13:18.587Z,2.74
2022-12-03T02:18:18.645Z,2.77
2022-12-03T02:23:26.003Z,2.79
2022-12-03T02:28:18.573Z,2.81
2022-12-03T02:33:18.440Z,2.85
2022-12-03T02:38:19.309Z,2.87
2022-12-03T02:43:19.031Z,2.9
2022-12-03T02:48:20.136Z,2.92
2022-12-03T02:53:21.759Z,2.94
2022-12-03T02:58:18.954Z,2.95
2022-12-03T03:03:20.308Z,2.97
2022-12-03T03:08:19.011Z,2.99
2022-12-03T03:13:19.580Z,3.01
2022-12-03T03:18:19.144Z,3.02
2022-12-03T03:23:22.630Z,3.02
2022-12-03T03:28:18.705Z,3.03
2022-12-03T03:33:19.322Z,3.04
2022-12-03T03:38:18.798Z,3.05
2022-12-03T03:43:18.556Z,3.04
2022-12-03T03:48:19.408Z,3.03
2022-12-03T03:53:20.807Z,3.03
2022-12-03T03:58:18.631Z,3.02
2022-12-03T04:03:18.621Z,3.03
2022-12-03T04:08:18.381Z,3
2022-12-03T04:13:18.584Z,3
2022-12-03T04:18:29.819Z,3
2022-12-03T04:23:18.558Z,2.98
2022-12-03T04:28:30.047Z,2.99
2022-12-03T04:33:29.956Z,2.98
2022-12-03T04:38:19.655Z,2.98
2022-12-03T04:43:18.491Z,2.98
2022-12-03T04:48:18.493Z,2.98
2022-12-03T04:53:18.623Z,2.97
2022-12-03T04:58:18.345Z,2.96
2022-12-03T05:03:18.399Z,2.95
2022-12-03T05:08:19.415Z,2.95
2022-12-03T05:13:18.419Z,2.94
2022-12-03T05:18:18.357Z,2.94
2022-12-03T05:23:18.480Z,2.95
2022-12-03T05:28:18.515Z,2.95
2022-12-03T05:33:18.361Z,2.94
2022-12-03T05:38:18.450Z,2.93
2022-12-03T05:43:18.334Z,2.93
2022-12-03T05:48:19.015Z,2.91
2022-12-03T05:53:19.108Z,2.89
2022-12-03T05:58:19.507Z,2.89
2022-12-03T06:03:18.594Z,2.89
2022-12-03T06:08:18.399Z,2.9
2022-12-03T06:13:20.925Z,2.9
2022-12-03T06:18:21.472Z,2.89
2022-12-03T06:23:18.477Z,2.9
2022-12-03T06:28:21.156Z,2.88
2022-12-03T06:33:22.346Z,2.89
2022-12-03T06:38:19.581Z,2.88
2022-12-03T06:43:19.137Z,2.88
2022-12-03T06:48:18.466Z,2.86
2022-12-03T06:53:18.493Z,2.86
2022-12-03T06:58:27.526Z,2.85
2022-12-03T07:03:18.378Z,2.84
2022-12-03T07:08:20.321Z,2.83
2022-12-03T07:13:18.344Z,2.84
2022-12-03T07:18:18.353Z,2.83
2022-12-03T07:23:18.610Z,2.83
2022-12-03T07:28:18.566Z,2.82
2022-12-03T07:33:18.595Z,2.82
2022-12-03T07:38:18.309Z,2.8
2022-12-03T07:43:19.417Z,2.8
2022-12-03T07:48:18.459Z,2.79
2022-12-03T07:53:18.350Z,2.78
2022-12-03T07:58:18.320Z,2.78
2022-12-03T08:03:21.008Z,2.77
2022-12-03T08:08:18.606Z,2.78
2022-12-03T08:13:19.772Z,2.77
2022-12-03T08:18:20.899Z,2.76
2022-12-03T08:23:20.228Z,2.79
2022-12-03T08:28:22.770Z,2.79
2022-12-03T08:33:24.310Z,2.8
2022-12-03T08:38:18.497Z,2.8
2022-12-03T08:43:22.671Z,2.79
2022-12-03T08:48:26.047Z,2.81
2022-12-03T08:53:24.924Z,2.83
2022-12-03T08:58:25.473Z,2.87
2022-12-03T09:03:20.590Z,2.9
2022-12-03T09:08:18.459Z,2.93
2022-12-03T09:13:18.960Z,2.95
2022-12-03T09:18:18.328Z,2.97
2022-12-03T09:23:18.963Z,2.99
2022-12-03T09:28:18.340Z,3.01
2022-12-03T09:33:18.550Z,3.03
2022-12-03T09:38:18.412Z,3.07
2022-12-03T09:43:18.306Z,3.09
2022-12-03T09:48:18.631Z,3.11
2022-12-03T09:53:20.637Z,3.12
2022-12-03T09:58:20.123Z,3.14
2022-12-03T10:03:19.498Z,3.14
2022-12-03T10:08:21.624Z,3.16
2022-12-03T10:13:25.789Z,3.19
2022-12-03T10:18:20.384Z,3.2
2022-12-03T10:23:27.925Z,3.22
2022-12-03T10:28:28.204Z,3.24
2022-12-03T10:33:19.411Z,3.26
2022-12-03T10:38:26.316Z,3.25
2022-12-03T10:43:24.900Z,3.26
2022-12-03T10:48:19.492Z,3.26
2022-12-03T10:53:18.487Z,3.27
2022-12-03T10:58:23.055Z,3.28
2022-12-03T11:03:22.019Z,3.26
2022-12-03T11:08:26.521Z,3.26
2022-12-03T11:13:29.571Z,3.28
2022-12-03T11:18:28.244Z,3.27
2022-12-03T11:23:18.257Z,3.26
2022-12-03T11:28:29.717Z,3.25
2022-12-03T11:33:28.684Z,3.26
2022-12-03T11:38:32.220Z,3.24
2022-12-03T11:43:18.453Z,3.24
2022-12-03T11:48:18.963Z,3.24
2022-12-03T11:53:24.102Z,3.23
2022-12-03T11:58:22.372Z,3.24
2022-12-03T12:03:27.312Z,3.24
2022-12-03T12:08:21.966Z,3.23
2022-12-03T12:13:29.603Z,3.24
2022-12-03T12:18:29.590Z,3.25
2022-12-03T12:23:29.238Z,3.25
2022-12-03T12:28:20.493Z,3.24
2022-12-03T12:33:22.766Z,3.24
2022-12-03T12:38:21.303Z,3.23
2022-12-03T12:43:23.974Z,3.21
2022-12-03T12:48:24.778Z,3.21
2022-12-03T12:53:24.136Z,3.21
2022-12-03T12:58:20.119Z,3.18
2022-12-03T13:03:20.557Z,3.15
2022-12-03T13:08:24.340Z,3.13
2022-12-03T13:13:26.568Z,3.11
2022-12-03T13:18:38.596Z,3.08
2022-12-03T13:23:26.824Z,3.08
2022-12-03T13:28:18.235Z,3.05
2022-12-03T13:33:26.059Z,3.02
2022-12-03T13:38:19.982Z,2.99
2022-12-03T13:43:18.982Z,2.96
2022-12-03T13:48:24.172Z,2.94
2022-12-03T13:53:24.066Z,2.9
2022-12-03T13:58:18.131Z,2.87
2022-12-03T14:03:18.971Z,2.84
2022-12-03T14:08:19.568Z,2.82
2022-12-03T14:13:18.365Z,2.79
2022-12-03T14:18:18.321Z,2.77
2022-12-03T14:23:18.323Z,2.75
2022-12-03T14:28:18.227Z,2.71
2022-12-03T14:33:18.554Z,2.69
2022-12-03T14:38:18.506Z,2.64
2022-12-03T14:43:21.080Z,2.6
2022-12-03T14:48:18.394Z,2.56
2022-12-03T14:53:21.503Z,2.5
2022-12-03T14:58:20.659Z,2.49
2022-12-03T15:03:20.053Z,2.47
2022-12-03T15:08:19.884Z,2.44
2022-12-03T15:13:19.837Z,2.44
2022-12-03T15:18:19.174Z,2.39
2022-12-03T15:23:19.372Z,2.37
2022-12-03T15:28:22.419Z,2.35
2022-12-03T15:33:19.489Z,2.31
2022-12-03T15:38:19.085Z,2.3
2022-12-03T15:43:18.584Z,2.28
2022-12-03T15:48:18.726Z,2.26
2022-12-03T15:53:23.315Z,2.21
2022-12-03T15:58:18.511Z,2.18
2022-12-03T16:03:18.352Z,2.16
2022-12-03T16:08:19.647Z,2.12
2022-12-03T16:13:18.222Z,2.09
2022-12-03T16:18:18.635Z,2.04
2022-12-03T16:23:19.067Z,2.01
2022-12-03T16:28:20.387Z,1.99
2022-12-03T16:33:22.509Z,1.97
2022-12-03T16:38:18.303Z,1.94
2022-12-03T16:43:18.515Z,1.94
2022-12-03T16:48:19.652Z,1.92
2022-12-03T16:53:18.480Z,1.92
2022-12-03T16:58:18.533Z,1.88
2022-12-03T17:03:18.341Z,1.85
2022-12-03T17:08:18.877Z,1.83
2022-12-03T17:13:18.937Z,1.83
2022-12-03T17:18:18.169Z,1.8
2022-12-03T17:23:18.307Z,1.81
2022-12-03T17:28:18.149Z,1.78
2022-12-03T17:33:18.141Z,1.78
2022-12-03T17:38:18.208Z,1.77
2022-12-03T17:43:18.160Z,1.74
2022-12-03T17:48:18.454Z,1.73
2022-12-03T17:53:18.228Z,1.72
2022-12-03T17:58:18.107Z,1.7
2022-12-03T18:03:18.768Z,1.68
2022-12-03T18:08:19.918Z,1.68
2022-12-03T18:13:18.795Z,1.63
2022-12-03T18:18:18.862Z,1.62
2022-12-03T18:23:19.308Z,1.59
2022-12-03T18:28:19.206Z,1.55
2022-12-03T18:33:21.349Z,1.54
2022-12-03T18:38:21.152Z,1.52
2022-12-03T18:43:20.423Z,1.49
2022-12-03T18:48:19.774Z,1.46
2022-12-03T18:53:19.686Z,1.44
2022-12-03T18:58:19.070Z,1.41
2022-12-03T19:03:21.117Z,1.39
2022-12-03T19:08:20.431Z,1.38
2022-12-03T19:13:20.956Z,1.34
2022-12-03T19:18:18.295Z,1.34
2022-12-03T19:23:18.307Z,1.29
2022-12-03T19:28:18.116Z,1.3
2022-12-03T19:33:18.487Z,1.27
2022-12-03T19:38:18.319Z,1.23
2022-12-03T19:43:18.215Z,1.21
2022-12-03T19:48:18.127Z,1.2
2022-12-03T19:53:18.519Z,1.19
2022-12-03T19:58:18.150Z,1.14
2022-12-03T20:03:21.260Z,1.14
2022-12-03T20:08:18.213Z,1.14
2022-12-03T20:13:18.217Z,1.11
2022-12-03T20:18:18.153Z,1.1
2022-12-03T20:23:18.204Z,1.1
2022-12-03T20:28:18.703Z,1.09
2022-12-03T20:33:18.014Z,1.07
2022-12-03T20:38:18.065Z,1.07
2022-12-03T20:43:18.193Z,1.1
2022-12-03T20:48:18.022Z,1.08
2022-12-03T20:53:24.820Z,1.1
2022-12-03T20:58:17.998Z,1.09
2022-12-03T21:03:18.089Z,1.09
2022-12-03T21:08:33.028Z,1.09
2022-12-03T21:13:26.587Z,1.11
2022-12-03T21:18:19.052Z,1.07
2022-12-03T21:23:18.350Z,1.05
2022-12-03T21:28:19.315Z,1.04
2022-12-03T21:33:18.097Z,1.05
2022-12-03T21:38:18.171Z,1.04
2022-12-03T21:43:18.207Z,1.03
2022-12-03T21:48:19.083Z,1.05
2022-12-03T21:53:18.379Z,1.02
2022-12-03T21:58:18.173Z,1.01
2022-12-03T22:03:18.191Z,0.99
2022-12-03T22:08:18.299Z,1
2022-12-03T22:13:18.210Z,1.01
2022-12-03T22:18:18.282Z,0.98
2022-12-03T22:23:18.065Z,0.99
2022-12-03T22:28:18.105Z,0.97
2022-12-03T22:33:18.108Z,0.97
2022-12-03T22:38:18.009Z,0.99
2022-12-03T22:43:18.198Z,0.96
2022-12-03T22:48:18.301Z,0.98
2022-12-03T22:53:18.312Z,0.99
2022-12-03T22:58:18.153Z,0.97
2022-12-03T23:03:18.164Z,0.95
2022-12-03T23:08:19.282Z,0.94
2022-12-03T23:13:18.401Z,0.95
2022-12-03T23:18:18.161Z,0.93
2022-12-03T23:23:18.225Z,0.94
2022-12-03T23:28:18.199Z,0.92
2022-12-03T23:33:18.410Z,0.92
2022-12-03T23:38:18.311Z,0.91
2022-12-03T23:43:18.047Z,0.92
2022-12-03T23:48:18.007Z,0.92
2022-12-03T23:53:18.101Z,0.92
2022-12-03T23:58:18.016Z,0.91
